sensor_id;sensor_type;location;lat;lon;timestamp;temperature;humidity
28175;SHT30;59417;44.788;10.334;2023-03-25T00:00:11;16.00;59.47
28175;SHT30;59417;44.788;10.334;2023-03-25T00:02:41;16.00;59.49
28175;SHT30;59417;44.788;10.334;2023-03-25T00:05:07;15.97;59.73
28175;SHT30;59417;44.788;10.334;2023-03-25T00:07:35;15.94;59.73
28175;SHT30;59417;44.788;10.334;2023-03-25T00:10:01;15.98;59.97
28175;SHT30;59417;44.788;10.334;2023-03-25T00:12:27;15.94;60.25
28175;SHT30;59417;44.788;10.334;2023-03-25T00:14:53;15.90;60.24
28175;SHT30;59417;44.788;10.334;2023-03-25T00:17:21;15.94;60.22
28175;SHT30;59417;44.788;10.334;2023-03-25T00:19:47;15.94;60.25
28175;SHT30;59417;44.788;10.334;2023-03-25T00:22:16;15.91;60.43
28175;SHT30;59417;44.788;10.334;2023-03-25T00:24:41;15.90;60.89
28175;SHT30;59417;44.788;10.334;2023-03-25T00:27:08;15.86;60.81
28175;SHT30;59417;44.788;10.334;2023-03-25T00:29:35;15.84;60.82
28175;SHT30;59417;44.788;10.334;2023-03-25T00:32:00;15.82;61.03
28175;SHT30;59417;44.788;10.334;2023-03-25T00:34:35;15.86;61.21
28175;SHT30;59417;44.788;10.334;2023-03-25T00:37:08;15.77;61.44
28175;SHT30;59417;44.788;10.334;2023-03-25T00:39:37;15.82;61.37
28175;SHT30;59417;44.788;10.334;2023-03-25T00:42:03;15.87;61.26
28175;SHT30;59417;44.788;10.334;2023-03-25T00:44:29;15.87;61.24
28175;SHT30;59417;44.788;10.334;2023-03-25T00:47:01;15.83;61.61
28175;SHT30;59417;44.788;10.334;2023-03-25T00:49:28;15.77;61.67
28175;SHT30;59417;44.788;10.334;2023-03-25T00:51:57;15.69;62.07
28175;SHT30;59417;44.788;10.334;2023-03-25T00:54:23;15.66;62.20
28175;SHT30;59417;44.788;10.334;2023-03-25T00:56:51;15.67;62.29
28175;SHT30;59417;44.788;10.334;2023-03-25T00:59:17;15.69;62.32
28175;SHT30;59417;44.788;10.334;2023-03-25T01:01:43;15.62;62.60
28175;SHT30;59417;44.788;10.334;2023-03-25T01:04:11;15.67;62.51
28175;SHT30;59417;44.788;10.334;2023-03-25T01:06:39;15.70;62.60
28175;SHT30;59417;44.788;10.334;2023-03-25T01:09:11;15.73;62.67
28175;SHT30;59417;44.788;10.334;2023-03-25T01:11:39;15.74;63.02
28175;SHT30;59417;44.788;10.334;2023-03-25T01:14:07;15.76;62.69
28175;SHT30;59417;44.788;10.334;2023-03-25T01:16:34;15.82;62.95
28175;SHT30;59417;44.788;10.334;2023-03-25T01:18:59;15.82;62.90
28175;SHT30;59417;44.788;10.334;2023-03-25T01:21:25;15.82;63.04
28175;SHT30;59417;44.788;10.334;2023-03-25T01:23:51;15.80;62.89
28175;SHT30;59417;44.788;10.334;2023-03-25T01:26:17;15.84;63.07
28175;SHT30;59417;44.788;10.334;2023-03-25T01:28:43;15.84;63.19
28175;SHT30;59417;44.788;10.334;2023-03-25T01:31:12;15.77;63.09
28175;SHT30;59417;44.788;10.334;2023-03-25T01:33:38;15.74;63.31
28175;SHT30;59417;44.788;10.334;2023-03-25T01:36:04;15.79;63.38
28175;SHT30;59417;44.788;10.334;2023-03-25T01:38:57;15.79;63.43
28175;SHT30;59417;44.788;10.334;2023-03-25T01:41:26;15.83;63.41
28175;SHT30;59417;44.788;10.334;2023-03-25T01:46:40;15.84;63.32
28175;SHT30;59417;44.788;10.334;2023-03-25T01:49:31;15.89;63.00
28175;SHT30;59417;44.788;10.334;2023-03-25T01:52:02;15.97;62.78
28175;SHT30;59417;44.788;10.334;2023-03-25T01:54:41;15.94;62.75
28175;SHT30;59417;44.788;10.334;2023-03-25T01:57:09;15.97;62.73
28175;SHT30;59417;44.788;10.334;2023-03-25T01:59:37;16.03;62.38
28175;SHT30;59417;44.788;10.334;2023-03-25T02:02:05;16.03;62.08
28175;SHT30;59417;44.788;10.334;2023-03-25T02:04:47;16.06;62.17
28175;SHT30;59417;44.788;10.334;2023-03-25T02:07:16;16.00;62.17
28175;SHT30;59417;44.788;10.334;2023-03-25T02:09:47;16.04;62.22
28175;SHT30;59417;44.788;10.334;2023-03-25T02:12:16;15.94;62.45
28175;SHT30;59417;44.788;10.334;2023-03-25T02:14:43;16.01;61.94
28175;SHT30;59417;44.788;10.334;2023-03-25T02:27:29;15.96;62.37
28175;SHT30;59417;44.788;10.334;2023-03-25T02:30:34;15.89;62.55
28175;SHT30;59417;44.788;10.334;2023-03-25T02:47:05;15.72;62.59
28175;SHT30;59417;44.788;10.334;2023-03-25T02:49:38;15.62;62.87
28175;SHT30;59417;44.788;10.334;2023-03-25T02:52:10;15.48;63.03
28175;SHT30;59417;44.788;10.334;2023-03-25T02:54:38;15.39;63.21
28175;SHT30;59417;44.788;10.334;2023-03-25T02:57:10;15.38;63.21
28175;SHT30;59417;44.788;10.334;2023-03-25T02:59:37;15.31;63.64
28175;SHT30;59417;44.788;10.334;2023-03-25T03:02:07;15.34;63.75
28175;SHT30;59417;44.788;10.334;2023-03-25T03:04:52;15.36;64.24
28175;SHT30;59417;44.788;10.334;2023-03-25T03:07:28;15.34;64.76
28175;SHT30;59417;44.788;10.334;2023-03-25T03:10:19;15.27;65.01
28175;SHT30;59417;44.788;10.334;2023-03-25T03:18:11;15.14;65.32
28175;SHT30;59417;44.788;10.334;2023-03-25T03:24:33;15.09;63.70
28175;SHT30;59417;44.788;10.334;2023-03-25T03:27:13;15.14;62.98
28175;SHT30;59417;44.788;10.334;2023-03-25T03:29:47;15.21;62.29
28175;SHT30;59417;44.788;10.334;2023-03-25T03:32:21;15.11;62.03
28175;SHT30;59417;44.788;10.334;2023-03-25T03:34:50;15.05;61.89
28175;SHT30;59417;44.788;10.334;2023-03-25T03:37:26;15.09;62.23
28175;SHT30;59417;44.788;10.334;2023-03-25T03:39:55;15.05;62.30
28175;SHT30;59417;44.788;10.334;2023-03-25T03:42:24;15.01;62.49
28175;SHT30;59417;44.788;10.334;2023-03-25T03:44:59;14.98;62.67
28175;SHT30;59417;44.788;10.334;2023-03-25T03:47:28;14.92;62.66
28175;SHT30;59417;44.788;10.334;2023-03-25T03:49:59;14.87;62.42
28175;SHT30;59417;44.788;10.334;2023-03-25T03:52:37;14.81;62.34
28175;SHT30;59417;44.788;10.334;2023-03-25T03:55:19;14.76;62.89
28175;SHT30;59417;44.788;10.334;2023-03-25T03:57:56;14.78;62.68
28175;SHT30;59417;44.788;10.334;2023-03-25T04:00:31;14.87;62.66
28175;SHT30;59417;44.788;10.334;2023-03-25T04:03:10;14.84;62.89
28175;SHT30;59417;44.788;10.334;2023-03-25T04:05:42;14.77;63.49
28175;SHT30;59417;44.788;10.334;2023-03-25T04:08:36;14.57;64.40
28175;SHT30;59417;44.788;10.334;2023-03-25T04:11:42;14.55;64.77
28175;SHT30;59417;44.788;10.334;2023-03-25T04:14:09;14.53;65.03
28175;SHT30;59417;44.788;10.334;2023-03-25T04:16:36;14.50;65.28
28175;SHT30;59417;44.788;10.334;2023-03-25T04:19:03;14.43;65.62
28175;SHT30;59417;44.788;10.334;2023-03-25T04:21:30;14.36;66.03
28175;SHT30;59417;44.788;10.334;2023-03-25T04:23:56;14.34;66.23
28175;SHT30;59417;44.788;10.334;2023-03-25T04:26:27;14.36;66.31
28175;SHT30;59417;44.788;10.334;2023-03-25T04:28:55;14.27;66.58
28175;SHT30;59417;44.788;10.334;2023-03-25T04:31:24;14.30;66.92
28175;SHT30;59417;44.788;10.334;2023-03-25T04:33:50;14.27;66.84
28175;SHT30;59417;44.788;10.334;2023-03-25T04:36:23;14.34;66.52
28175;SHT30;59417;44.788;10.334;2023-03-25T04:38:55;14.39;66.50
28175;SHT30;59417;44.788;10.334;2023-03-25T04:41:23;14.33;66.66
28175;SHT30;59417;44.788;10.334;2023-03-25T04:43:50;14.32;66.65
28175;SHT30;59417;44.788;10.334;2023-03-25T04:46:25;14.44;66.33
28175;SHT30;59417;44.788;10.334;2023-03-25T04:48:54;14.27;66.87
28175;SHT30;59417;44.788;10.334;2023-03-25T04:51:21;14.20;67.12
28175;SHT30;59417;44.788;10.334;2023-03-25T04:53:47;14.17;67.37
28175;SHT30;59417;44.788;10.334;2023-03-25T04:56:17;14.23;67.33
28175;SHT30;59417;44.788;10.334;2023-03-25T04:58:44;14.10;68.44
28175;SHT30;59417;44.788;10.334;2023-03-25T05:01:25;13.99;68.89
28175;SHT30;59417;44.788;10.334;2023-03-25T05:03:58;14.01;68.77
28175;SHT30;59417;44.788;10.334;2023-03-25T05:06:33;14.08;68.79
28175;SHT30;59417;44.788;10.334;2023-03-25T05:09:03;14.02;68.95
28175;SHT30;59417;44.788;10.334;2023-03-25T05:11:31;13.95;69.36
28175;SHT30;59417;44.788;10.334;2023-03-25T05:13:57;13.95;69.32
28175;SHT30;59417;44.788;10.334;2023-03-25T05:16:28;13.96;69.37
28175;SHT30;59417;44.788;10.334;2023-03-25T05:19:00;13.92;69.58
28175;SHT30;59417;44.788;10.334;2023-03-25T05:21:31;13.95;69.71
28175;SHT30;59417;44.788;10.334;2023-03-25T05:24:11;14.08;69.25
28175;SHT30;59417;44.788;10.334;2023-03-25T05:26:43;14.17;68.82
28175;SHT30;59417;44.788;10.334;2023-03-25T05:29:16;14.23;68.47
28175;SHT30;59417;44.788;10.334;2023-03-25T05:31:48;14.04;69.24
28175;SHT30;59417;44.788;10.334;2023-03-25T05:34:17;13.89;69.74
28175;SHT30;59417;44.788;10.334;2023-03-25T05:36:45;13.91;69.88
28175;SHT30;59417;44.788;10.334;2023-03-25T05:39:11;13.92;69.92
28175;SHT30;59417;44.788;10.334;2023-03-25T05:41:37;14.06;69.68
28175;SHT30;59417;44.788;10.334;2023-03-25T05:44:09;14.19;69.23
28175;SHT30;59417;44.788;10.334;2023-03-25T05:46:39;14.17;69.11
28175;SHT30;59417;44.788;10.334;2023-03-25T05:49:05;14.17;69.14
28175;SHT30;59417;44.788;10.334;2023-03-25T05:51:33;14.15;69.17
28175;SHT30;59417;44.788;10.334;2023-03-25T05:54:21;14.22;69.07
28175;SHT30;59417;44.788;10.334;2023-03-25T05:57:03;14.34;68.60
28175;SHT30;59417;44.788;10.334;2023-03-25T05:59:34;14.34;68.37
28175;SHT30;59417;44.788;10.334;2023-03-25T06:02:14;14.33;68.64
28175;SHT30;59417;44.788;10.334;2023-03-25T06:04:42;14.39;68.43
28175;SHT30;59417;44.788;10.334;2023-03-25T06:07:14;14.44;68.21
28175;SHT30;59417;44.788;10.334;2023-03-25T06:09:46;14.32;68.61
28175;SHT30;59417;44.788;10.334;2023-03-25T06:12:18;14.26;68.77
28175;SHT30;59417;44.788;10.334;2023-03-25T06:14:47;14.17;69.01
28175;SHT30;59417;44.788;10.334;2023-03-25T06:17:19;14.12;69.46
28175;SHT30;59417;44.788;10.334;2023-03-25T06:19:53;14.08;69.80
28175;SHT30;59417;44.788;10.334;2023-03-25T06:22:22;14.08;69.96
28175;SHT30;59417;44.788;10.334;2023-03-25T06:24:53;14.16;69.99
28175;SHT30;59417;44.788;10.334;2023-03-25T06:27:19;14.08;70.41
28175;SHT30;59417;44.788;10.334;2023-03-25T06:29:45;14.06;70.42
28175;SHT30;59417;44.788;10.334;2023-03-25T06:32:14;14.15;70.23
28175;SHT30;59417;44.788;10.334;2023-03-25T06:34:42;14.19;70.37
28175;SHT30;59417;44.788;10.334;2023-03-25T06:37:15;14.25;70.40
28175;SHT30;59417;44.788;10.334;2023-03-25T06:39:43;14.16;70.80
28175;SHT30;59417;44.788;10.334;2023-03-25T06:42:17;14.22;70.61
28175;SHT30;59417;44.788;10.334;2023-03-25T06:44:53;14.27;70.95
28175;SHT30;59417;44.788;10.334;2023-03-25T06:47:39;14.30;70.64
28175;SHT30;59417;44.788;10.334;2023-03-25T06:50:07;14.37;70.16
28175;SHT30;59417;44.788;10.334;2023-03-25T06:52:32;14.47;69.99
28175;SHT30;59417;44.788;10.334;2023-03-25T06:54:58;14.53;70.43
28175;SHT30;59417;44.788;10.334;2023-03-25T06:57:23;14.60;69.86
28175;SHT30;59417;44.788;10.334;2023-03-25T06:59:49;14.66;69.63
28175;SHT30;59417;44.788;10.334;2023-03-25T07:02:15;14.74;69.97
28175;SHT30;59417;44.788;10.334;2023-03-25T07:04:41;14.81;70.11
28175;SHT30;59417;44.788;10.334;2023-03-25T07:07:08;14.91;69.55
28175;SHT30;59417;44.788;10.334;2023-03-25T07:09:34;14.80;69.79
28175;SHT30;59417;44.788;10.334;2023-03-25T07:11:59;14.78;69.86
28175;SHT30;59417;44.788;10.334;2023-03-25T07:14:25;14.92;69.41
28175;SHT30;59417;44.788;10.334;2023-03-25T07:16:51;15.04;69.35
28175;SHT30;59417;44.788;10.334;2023-03-25T07:19:16;14.97;68.81
28175;SHT30;59417;44.788;10.334;2023-03-25T07:21:42;15.08;69.00
28175;SHT30;59417;44.788;10.334;2023-03-25T07:24:07;15.27;68.64
28175;SHT30;59417;44.788;10.334;2023-03-25T07:26:33;15.39;68.00
28175;SHT30;59417;44.788;10.334;2023-03-25T07:28:58;15.46;67.49
28175;SHT30;59417;44.788;10.334;2023-03-25T07:31:24;15.43;67.48
28175;SHT30;59417;44.788;10.334;2023-03-25T07:33:49;15.46;67.77
28175;SHT30;59417;44.788;10.334;2023-03-25T07:36:16;15.69;67.17
28175;SHT30;59417;44.788;10.334;2023-03-25T07:38:42;15.67;67.09
28175;SHT30;59417;44.788;10.334;2023-03-25T07:41:09;15.80;66.84
28175;SHT30;59417;44.788;10.334;2023-03-25T07:43:36;15.98;66.64
28175;SHT30;59417;44.788;10.334;2023-03-25T07:46:40;16.24;66.01
28175;SHT30;59417;44.788;10.334;2023-03-25T07:49:06;16.44;65.84
28175;SHT30;59417;44.788;10.334;2023-03-25T07:51:32;16.59;65.32
28175;SHT30;59417;44.788;10.334;2023-03-25T07:53:59;16.71;64.57
28175;SHT30;59417;44.788;10.334;2023-03-25T07:56:25;16.54;65.05
28175;SHT30;59417;44.788;10.334;2023-03-25T07:58:56;16.42;65.65
28175;SHT30;59417;44.788;10.334;2023-03-25T08:01:22;16.35;66.10
28175;SHT30;59417;44.788;10.334;2023-03-25T08:03:48;16.44;65.76
28175;SHT30;59417;44.788;10.334;2023-03-25T08:06:14;16.37;65.74
28175;SHT30;59417;44.788;10.334;2023-03-25T08:09:03;16.35;66.20
28175;SHT30;59417;44.788;10.334;2023-03-25T08:11:38;16.45;66.36
28175;SHT30;59417;44.788;10.334;2023-03-25T08:14:06;16.66;65.42
28175;SHT30;59417;44.788;10.334;2023-03-25T08:16:35;16.62;66.36
28175;SHT30;59417;44.788;10.334;2023-03-25T08:19:06;16.71;65.20
28175;SHT30;59417;44.788;10.334;2023-03-25T08:21:32;16.86;65.16
28175;SHT30;59417;44.788;10.334;2023-03-25T08:23:57;16.76;65.11
28175;SHT30;59417;44.788;10.334;2023-03-25T08:26:28;16.80;66.00
28175;SHT30;59417;44.788;10.334;2023-03-25T08:28:55;16.96;65.95
28175;SHT30;59417;44.788;10.334;2023-03-25T08:31:25;17.02;65.81
28175;SHT30;59417;44.788;10.334;2023-03-25T08:34:01;17.09;65.25
28175;SHT30;59417;44.788;10.334;2023-03-25T08:36:26;17.30;64.32
28175;SHT30;59417;44.788;10.334;2023-03-25T08:38:52;17.51;63.61
28175;SHT30;59417;44.788;10.334;2023-03-25T08:41:27;17.69;63.91
28175;SHT30;59417;44.788;10.334;2023-03-25T08:44:03;17.87;62.46
28175;SHT30;59417;44.788;10.334;2023-03-25T08:46:31;17.87;62.09
28175;SHT30;59417;44.788;10.334;2023-03-25T08:49:04;17.88;62.67
28175;SHT30;59417;44.788;10.334;2023-03-25T08:51:33;17.94;62.94
28175;SHT30;59417;44.788;10.334;2023-03-25T08:53:59;18.02;62.42
28175;SHT30;59417;44.788;10.334;2023-03-25T08:56:30;18.18;62.12
28175;SHT30;59417;44.788;10.334;2023-03-25T08:59:02;18.33;61.68
28175;SHT30;59417;44.788;10.334;2023-03-25T09:01:36;18.32;60.51
28175;SHT30;59417;44.788;10.334;2023-03-25T09:04:02;18.37;59.40
28175;SHT30;59417;44.788;10.334;2023-03-25T09:06:28;18.30;59.54
28175;SHT30;59417;44.788;10.334;2023-03-25T09:08:53;18.42;61.10
28175;SHT30;59417;44.788;10.334;2023-03-25T09:11:20;18.49;60.21
28175;SHT30;59417;44.788;10.334;2023-03-25T09:13:46;18.72;59.54
28175;SHT30;59417;44.788;10.334;2023-03-25T09:16:12;18.70;58.46
28175;SHT30;59417;44.788;10.334;2023-03-25T09:18:37;18.87;57.15
28175;SHT30;59417;44.788;10.334;2023-03-25T09:21:03;19.03;57.69
28175;SHT30;59417;44.788;10.334;2023-03-25T09:23:29;19.10;51.87
28175;SHT30;59417;44.788;10.334;2023-03-25T09:25:58;19.27;54.66
28175;SHT30;59417;44.788;10.334;2023-03-25T09:28:27;19.34;49.44
28175;SHT30;59417;44.788;10.334;2023-03-25T09:30:53;19.49;48.36
28175;SHT30;59417;44.788;10.334;2023-03-25T09:33:19;19.61;47.84
28175;SHT30;59417;44.788;10.334;2023-03-25T09:35:45;19.62;45.78
28175;SHT30;59417;44.788;10.334;2023-03-25T09:38:12;19.89;48.60
28175;SHT30;59417;44.788;10.334;2023-03-25T09:40:41;19.89;45.75
28175;SHT30;59417;44.788;10.334;2023-03-25T09:46:40;19.70;46.86
28175;SHT30;59417;44.788;10.334;2023-03-25T09:49:31;19.95;48.15
28175;SHT30;59417;44.788;10.334;2023-03-25T09:52:15;20.12;46.16
28175;SHT30;59417;44.788;10.334;2023-03-25T09:54:51;19.96;46.68
28175;SHT30;59417;44.788;10.334;2023-03-25T09:57:21;19.93;47.22
28175;SHT30;59417;44.788;10.334;2023-03-25T09:59:52;19.59;45.74
28175;SHT30;59417;44.788;10.334;2023-03-25T10:02:35;19.75;48.91
28175;SHT30;59417;44.788;10.334;2023-03-25T10:14:10;19.89;45.52
28175;SHT30;59417;44.788;10.334;2023-03-25T10:17:10;20.14;45.52
28175;SHT30;59417;44.788;10.334;2023-03-25T10:20:05;20.24;45.32
28175;SHT30;59417;44.788;10.334;2023-03-25T10:23:06;20.31;42.63
28175;SHT30;59417;44.788;10.334;2023-03-25T10:25:37;20.30;43.44
28175;SHT30;59417;44.788;10.334;2023-03-25T10:28:04;20.44;43.37
28175;SHT30;59417;44.788;10.334;2023-03-25T10:30:38;20.51;40.75
28175;SHT30;59417;44.788;10.334;2023-03-25T10:33:38;20.37;39.12
28175;SHT30;59417;44.788;10.334;2023-03-25T10:36:10;20.57;39.44
28175;SHT30;59417;44.788;10.334;2023-03-25T10:38:37;20.57;34.69
28175;SHT30;59417;44.788;10.334;2023-03-25T10:43:42;20.84;34.52
28175;SHT30;59417;44.788;10.334;2023-03-25T10:46:23;20.67;34.72
28175;SHT30;59417;44.788;10.334;2023-03-25T10:48:50;20.82;35.33
28175;SHT30;59417;44.788;10.334;2023-03-25T10:51:36;21.12;36.37
28175;SHT30;59417;44.788;10.334;2023-03-25T10:54:02;21.32;37.51
28175;SHT30;59417;44.788;10.334;2023-03-25T10:56:43;21.23;36.73
28175;SHT30;59417;44.788;10.334;2023-03-25T10:59:25;21.47;38.01
28175;SHT30;59417;44.788;10.334;2023-03-25T11:01:57;21.43;39.98
28175;SHT30;59417;44.788;10.334;2023-03-25T11:04:31;21.50;37.33
28175;SHT30;59417;44.788;10.334;2023-03-25T11:06:59;21.20;37.16
28175;SHT30;59417;44.788;10.334;2023-03-25T11:09:29;21.19;37.29
28175;SHT30;59417;44.788;10.334;2023-03-25T11:11:58;21.29;37.81
28175;SHT30;59417;44.788;10.334;2023-03-25T11:14:27;21.41;38.88
28175;SHT30;59417;44.788;10.334;2023-03-25T11:17:00;21.39;35.93
28175;SHT30;59417;44.788;10.334;2023-03-25T11:19:36;21.41;35.60
28175;SHT30;59417;44.788;10.334;2023-03-25T11:22:25;21.46;35.06
28175;SHT30;59417;44.788;10.334;2023-03-25T11:24:58;21.38;35.59
28175;SHT30;59417;44.788;10.334;2023-03-25T11:27:27;21.57;35.28
28175;SHT30;59417;44.788;10.334;2023-03-25T11:30:06;21.73;33.72
28175;SHT30;59417;44.788;10.334;2023-03-25T11:32:39;21.81;33.72
28175;SHT30;59417;44.788;10.334;2023-03-25T11:35:25;21.94;34.35
28175;SHT30;59417;44.788;10.334;2023-03-25T11:37:56;21.84;33.64
28175;SHT30;59417;44.788;10.334;2023-03-25T11:40:23;21.97;33.86
28175;SHT30;59417;44.788;10.334;2023-03-25T11:43:08;21.90;32.65
28175;SHT30;59417;44.788;10.334;2023-03-25T11:45:36;22.04;33.39
28175;SHT30;59417;44.788;10.334;2023-03-25T11:48:11;21.76;32.82
28175;SHT30;59417;44.788;10.334;2023-03-25T11:50:45;22.00;33.58
28175;SHT30;59417;44.788;10.334;2023-03-25T11:53:14;22.17;34.04
28175;SHT30;59417;44.788;10.334;2023-03-25T11:55:46;22.25;33.09
28175;SHT30;59417;44.788;10.334;2023-03-25T11:58:15;22.51;34.33
28175;SHT30;59417;44.788;10.334;2023-03-25T12:01:40;22.45;32.91
28175;SHT30;59417;44.788;10.334;2023-03-25T12:04:26;22.35;32.06
28175;SHT30;59417;44.788;10.334;2023-03-25T12:07:19;22.28;30.31
28175;SHT30;59417;44.788;10.334;2023-03-25T12:09:57;22.29;31.52
28175;SHT30;59417;44.788;10.334;2023-03-25T12:17:55;22.65;30.08
28175;SHT30;59417;44.788;10.334;2023-03-25T12:26:39;23.09;27.85
28175;SHT30;59417;44.788;10.334;2023-03-25T12:29:33;23.10;25.73
28175;SHT30;59417;44.788;10.334;2023-03-25T12:32:29;22.72;24.80
28175;SHT30;59417;44.788;10.334;2023-03-25T12:35:02;22.69;27.72
28175;SHT30;59417;44.788;10.334;2023-03-25T12:37:39;22.73;27.11
28175;SHT30;59417;44.788;10.334;2023-03-25T12:43:10;23.06;25.54
28175;SHT30;59417;44.788;10.334;2023-03-25T12:45:57;23.37;25.62
28175;SHT30;59417;44.788;10.334;2023-03-25T12:49:06;23.19;24.06
28175;SHT30;59417;44.788;10.334;2023-03-25T13:11:23;23.16;24.06
28175;SHT30;59417;44.788;10.334;2023-03-25T13:13:48;23.58;24.88
28175;SHT30;59417;44.788;10.334;2023-03-25T13:16:21;23.30;23.62
28175;SHT30;59417;44.788;10.334;2023-03-25T13:18:54;23.19;24.53
28175;SHT30;59417;44.788;10.334;2023-03-25T13:21:24;23.29;24.55
28175;SHT30;59417;44.788;10.334;2023-03-25T13:23:57;23.12;24.68
28175;SHT30;59417;44.788;10.334;2023-03-25T13:26:25;23.12;24.74
28175;SHT30;59417;44.788;10.334;2023-03-25T13:28:56;23.16;25.44
28175;SHT30;59417;44.788;10.334;2023-03-25T13:31:30;23.40;25.93
28175;SHT30;59417;44.788;10.334;2023-03-25T13:34:35;23.27;23.84
28175;SHT30;59417;44.788;10.334;2023-03-25T13:37:30;23.16;24.23
28175;SHT30;59417;44.788;10.334;2023-03-25T13:40:33;23.20;22.65
28175;SHT30;59417;44.788;10.334;2023-03-25T13:45:27;23.43;25.58
28175;SHT30;59417;44.788;10.334;2023-03-25T13:48:11;23.22;24.11
28175;SHT30;59417;44.788;10.334;2023-03-25T13:50:38;23.31;23.80
28175;SHT30;59417;44.788;10.334;2023-03-25T13:53:39;23.55;24.50
28175;SHT30;59417;44.788;10.334;2023-03-25T14:05:17;23.43;23.21
28175;SHT30;59417;44.788;10.334;2023-03-25T14:08:07;23.33;23.30
28175;SHT30;59417;44.788;10.334;2023-03-25T14:13:30;23.57;24.38
28175;SHT30;59417;44.788;10.334;2023-03-25T14:16:09;23.44;24.08
28175;SHT30;59417;44.788;10.334;2023-03-25T14:19:21;23.39;24.33
28175;SHT30;59417;44.788;10.334;2023-03-25T14:21:42;23.09;23.92
28175;SHT30;59417;44.788;10.334;2023-03-25T14:24:13;23.23;25.78
28175;SHT30;59417;44.788;10.334;2023-03-25T14:26:49;22.93;24.70
28175;SHT30;59417;44.788;10.334;2023-03-25T14:29:35;23.03;25.15
28175;SHT30;59417;44.788;10.334;2023-03-25T14:32:23;23.15;25.33
28175;SHT30;59417;44.788;10.334;2023-03-25T14:34:50;23.13;25.02
28175;SHT30;59417;44.788;10.334;2023-03-25T14:37:25;23.16;24.62
28175;SHT30;59417;44.788;10.334;2023-03-25T14:42:58;23.15;25.64
28175;SHT30;59417;44.788;10.334;2023-03-25T14:47:56;23.19;24.71
28175;SHT30;59417;44.788;10.334;2023-03-25T14:52:54;23.26;24.17
28175;SHT30;59417;44.788;10.334;2023-03-25T14:55:32;23.16;24.73
28175;SHT30;59417;44.788;10.334;2023-03-25T14:58:25;23.26;24.48
28175;SHT30;59417;44.788;10.334;2023-03-25T15:01:02;23.31;24.65
28175;SHT30;59417;44.788;10.334;2023-03-25T15:03:35;23.15;23.87
28175;SHT30;59417;44.788;10.334;2023-03-25T15:06:02;22.88;25.45
28175;SHT30;59417;44.788;10.334;2023-03-25T15:08:40;22.69;24.84
28175;SHT30;59417;44.788;10.334;2023-03-25T15:11:12;22.54;25.41
28175;SHT30;59417;44.788;10.334;2023-03-25T15:13:45;22.52;24.99
28175;SHT30;59417;44.788;10.334;2023-03-25T15:16:54;22.45;24.87
28175;SHT30;59417;44.788;10.334;2023-03-25T15:19:20;22.58;25.38
28175;SHT30;59417;44.788;10.334;2023-03-25T15:25:14;22.99;25.79
28175;SHT30;59417;44.788;10.334;2023-03-25T15:36:51;23.41;26.04
28175;SHT30;59417;44.788;10.334;2023-03-25T15:39:46;23.57;26.11
28175;SHT30;59417;44.788;10.334;2023-03-25T15:42:36;23.67;26.76
28175;SHT30;59417;44.788;10.334;2023-03-25T15:48:19;23.67;29.69
28175;SHT30;59417;44.788;10.334;2023-03-25T15:57:32;23.57;27.00
28175;SHT30;59417;44.788;10.334;2023-03-25T16:03:15;23.63;25.19
28175;SHT30;59417;44.788;10.334;2023-03-25T16:06:25;23.75;24.33
28175;SHT30;59417;44.788;10.334;2023-03-25T16:08:59;23.85;23.84
28175;SHT30;59417;44.788;10.334;2023-03-25T16:11:50;23.81;24.71
28175;SHT30;59417;44.788;10.334;2023-03-25T16:14:19;23.77;23.30
28175;SHT30;59417;44.788;10.334;2023-03-25T16:16:49;23.71;23.02
28175;SHT30;59417;44.788;10.334;2023-03-25T16:19:20;23.65;23.09
28175;SHT30;59417;44.788;10.334;2023-03-25T16:21:51;23.55;23.47
28175;SHT30;59417;44.788;10.334;2023-03-25T16:24:27;23.58;23.81
28175;SHT30;59417;44.788;10.334;2023-03-25T16:27:09;23.22;31.17
28175;SHT30;59417;44.788;10.334;2023-03-25T16:29:37;22.95;32.84
28175;SHT30;59417;44.788;10.334;2023-03-25T16:32:15;22.69;34.59
28175;SHT30;59417;44.788;10.334;2023-03-25T16:34:42;22.58;35.52
28175;SHT30;59417;44.788;10.334;2023-03-25T16:37:13;22.49;35.58
28175;SHT30;59417;44.788;10.334;2023-03-25T16:39:40;22.44;36.05
28175;SHT30;59417;44.788;10.334;2023-03-25T16:42:20;22.22;36.12
28175;SHT30;59417;44.788;10.334;2023-03-25T16:44:48;22.10;36.79
28175;SHT30;59417;44.788;10.334;2023-03-25T16:47:14;22.07;37.54
28175;SHT30;59417;44.788;10.334;2023-03-25T16:49:44;21.90;37.39
28175;SHT30;59417;44.788;10.334;2023-03-25T16:52:14;21.77;38.46
28175;SHT30;59417;44.788;10.334;2023-03-25T16:54:45;21.62;37.74
28175;SHT30;59417;44.788;10.334;2023-03-25T16:57:20;21.67;37.68
28175;SHT30;59417;44.788;10.334;2023-03-25T16:59:49;21.83;37.08
28175;SHT30;59417;44.788;10.334;2023-03-25T17:02:49;21.93;36.57
28175;SHT30;59417;44.788;10.334;2023-03-25T17:05:26;21.89;36.91
28175;SHT30;59417;44.788;10.334;2023-03-25T17:08:03;21.83;36.74
28175;SHT30;59417;44.788;10.334;2023-03-25T17:10:45;21.76;37.09
28175;SHT30;59417;44.788;10.334;2023-03-25T17:13:26;21.63;37.11
28175;SHT30;59417;44.788;10.334;2023-03-25T17:15:57;21.47;37.77
28175;SHT30;59417;44.788;10.334;2023-03-25T17:18:27;21.42;37.82
28175;SHT30;59417;44.788;10.334;2023-03-25T17:20:57;21.36;37.82
28175;SHT30;59417;44.788;10.334;2023-03-25T17:26:10;21.15;38.75
28175;SHT30;59417;44.788;10.334;2023-03-25T17:28:55;21.11;39.09
28175;SHT30;59417;44.788;10.334;2023-03-25T17:31:36;20.98;39.53
28175;SHT30;59417;44.788;10.334;2023-03-25T17:34:19;20.90;40.12
28175;SHT30;59417;44.788;10.334;2023-03-25T17:36:57;20.81;40.28
28175;SHT30;59417;44.788;10.334;2023-03-25T17:39:29;20.74;40.39
28175;SHT30;59417;44.788;10.334;2023-03-25T17:42:00;20.64;40.88
28175;SHT30;59417;44.788;10.334;2023-03-25T17:44:37;20.62;40.56
28175;SHT30;59417;44.788;10.334;2023-03-25T17:47:05;20.55;40.88
28175;SHT30;59417;44.788;10.334;2023-03-25T17:49:32;20.48;41.36
28175;SHT30;59417;44.788;10.334;2023-03-25T17:52:01;20.40;41.52
28175;SHT30;59417;44.788;10.334;2023-03-25T17:54:27;20.24;42.05
28175;SHT30;59417;44.788;10.334;2023-03-25T17:56:59;20.17;41.67
28175;SHT30;59417;44.788;10.334;2023-03-25T17:59:24;20.17;40.98
28175;SHT30;59417;44.788;10.334;2023-03-25T18:01:51;20.16;41.26
28175;SHT30;59417;44.788;10.334;2023-03-25T18:04:18;20.17;41.09
28175;SHT30;59417;44.788;10.334;2023-03-25T18:06:47;20.13;40.76